Terminal Aerodrome Forecast
Issued by NWS Central Illinois

Home | Current Version | Previous Version | Text Only | Print | Product List | Glossary On
Versions: 1 2 3 4 5 6 7 8 9 10 11 12 13 14
000
FTUS43 KILX 250200 AAA
TAFPIA
TAF AMD
KPIA 250200Z 2502/2524 10012KT P6SM OVC040
     FM250400 11014KT P6SM VCSH OVC035
     FM250700 12012KT P6SM -SHRA VCTS OVC035CB
     FM251200 11014KT 2SM -SHRA BR VCTS BKN006 OVC015CB
     FM251700 08012KT 3SM -SHRA BR VCTS OVC006CB=

USA.gov is the U.S. government's official web portal to all federal, state and local government web resources and services.